createdAt,value
2023-05-04T00:02:24.560Z,102988.81
2023-05-04T00:04:54.436Z,102988.84
2023-05-04T00:07:23.531Z,102978.97
2023-05-04T00:09:51.013Z,102986.97
2023-05-04T00:12:18.233Z,102978.94
2023-05-04T00:14:44.921Z,102972.66
2023-05-04T00:17:12.689Z,102969.97
2023-05-04T00:19:42.029Z,102965.44
2023-05-04T00:22:09.179Z,102962.72
2023-05-04T00:24:35.913Z,102958.28
2023-05-04T00:27:02.684Z,102968.16
2023-05-04T00:29:30.085Z,102955.66
2023-05-04T00:31:57.284Z,102951.22
2023-05-04T00:34:24.330Z,102950.31
2023-05-04T00:36:51.098Z,102945.88
2023-05-04T00:39:17.884Z,102940.53
2023-05-04T00:41:45.821Z,102945.97
2023-05-04T00:44:12.978Z,102951.31
2023-05-04T00:46:42.747Z,102944.16
2023-05-04T00:49:10.046Z,102943.25
2023-05-04T00:51:37.106Z,102941.44
2023-05-04T00:54:05.090Z,102932.53
2023-05-04T00:56:33.176Z,102943.38
2023-05-04T00:58:59.877Z,102940.75
2023-05-04T01:01:27.244Z,102937.16
2023-05-04T01:03:55.556Z,102929.97
2023-05-04T01:06:38.784Z,102935.28
2023-05-04T01:09:19.686Z,102932.63
2023-05-04T01:12:14.609Z,102928.19
2023-05-04T01:14:43.283Z,102928.19
2023-05-04T01:17:11.622Z,102926.38
2023-05-04T01:19:41.067Z,102921.91
2023-05-04T01:22:07.735Z,102922.03
2023-05-04T01:24:34.852Z,102934.50
2023-05-04T01:27:09.347Z,102927.38
2023-05-04T01:29:56.521Z,102923.84
2023-05-04T01:32:24.516Z,102920.22
2023-05-04T01:34:51.233Z,102918.44
2023-05-04T01:37:17.901Z,102914.88
2023-05-04T01:39:44.566Z,102905.13
2023-05-04T01:42:11.276Z,102917.63
2023-05-04T01:44:38.632Z,102914.91
2023-05-04T01:47:05.465Z,102917.66
2023-05-04T01:49:32.272Z,102914.09
2023-05-04T01:51:59.053Z,102913.22
2023-05-04T01:54:25.971Z,102909.63
2023-05-04T01:56:52.754Z,102901.53
2023-05-04T01:59:19.420Z,102900.63
2023-05-04T02:01:46.211Z,102894.38
2023-05-04T02:04:12.949Z,102896.19
2023-05-04T02:06:39.669Z,102900.72
2023-05-04T02:09:06.991Z,102900.72
2023-05-04T02:11:33.716Z,102906.94
2023-05-04T02:14:00.401Z,102906.06
2023-05-04T02:16:27.131Z,102906.06
2023-05-04T02:18:53.865Z,102900.72
2023-05-04T02:21:20.824Z,102904.28
2023-05-04T02:23:47.533Z,102897.19
2023-05-04T02:26:14.197Z,102909.66
2023-05-04T02:28:40.859Z,102898.97
2023-05-04T02:31:07.734Z,102904.31
2023-05-04T02:33:34.505Z,102903.44
2023-05-04T02:36:01.233Z,102890.91
2023-05-04T02:38:27.969Z,102889.13
2023-05-04T02:40:54.927Z,102890.00
2023-05-04T02:43:21.616Z,102890.88
2023-05-04T02:45:48.386Z,102890.00
2023-05-04T02:48:15.145Z,102894.50
2023-05-04T02:50:41.854Z,102892.75
2023-05-04T02:53:08.527Z,102888.28
2023-05-04T02:55:35.221Z,102884.69
2023-05-04T02:58:01.950Z,102888.25
2023-05-04T03:00:28.613Z,102889.13
2023-05-04T03:02:55.389Z,102889.13
2023-05-04T03:05:22.332Z,102884.69
2023-05-04T03:07:49.023Z,102895.44
2023-05-04T03:10:15.848Z,102903.47
2023-05-04T03:12:42.615Z,102900.78
2023-05-04T03:15:09.437Z,102895.44
2023-05-04T03:17:36.685Z,102884.69
2023-05-04T03:20:04.207Z,102885.59
2023-05-04T03:22:31.100Z,102890.03
2023-05-04T03:24:57.798Z,102887.34
2023-05-04T03:27:24.602Z,102889.16
2023-05-04T03:29:53.539Z,102888.31
2023-05-04T03:32:20.727Z,102894.50
2023-05-04T03:34:47.456Z,102890.94
2023-05-04T03:37:14.237Z,102884.69
2023-05-04T03:39:41.291Z,102882.91
2023-05-04T03:42:08.128Z,102882.00
2023-05-04T03:44:34.902Z,102885.56
2023-05-04T03:47:01.617Z,102880.19
2023-05-04T03:49:28.320Z,102888.22
2023-05-04T03:51:54.988Z,102892.69
2023-05-04T03:54:21.650Z,102895.38
2023-05-04T03:56:48.349Z,102882.78
2023-05-04T03:59:15.000Z,102898.91
2023-05-04T04:01:41.695Z,102880.09
2023-05-04T04:04:08.462Z,102879.16
2023-05-04T04:06:35.464Z,102874.69
2023-05-04T04:09:02.115Z,102858.56
2023-05-04T04:11:28.769Z,102856.66
2023-05-04T04:13:55.939Z,102854.88
2023-05-04T04:16:22.967Z,102851.25
2023-05-04T04:18:52.166Z,102850.28
2023-05-04T04:21:18.910Z,102854.91
2023-05-04T04:23:45.592Z,102862.06
2023-05-04T04:26:12.287Z,102855.69
2023-05-04T04:28:38.954Z,102852.06
2023-05-04T04:31:05.680Z,102856.44
2023-05-04T04:33:32.930Z,102850.06
2023-05-04T04:35:59.766Z,102846.50
2023-05-04T04:38:26.826Z,102857.25
2023-05-04T04:40:53.529Z,102857.19
2023-05-04T04:43:20.512Z,102864.31
2023-05-04T04:45:47.245Z,102853.47
2023-05-04T04:48:14.577Z,102845.31
2023-05-04T04:50:41.426Z,102863.38
2023-05-04T04:53:08.161Z,102863.38
2023-05-04T04:55:34.891Z,102861.31
2023-05-04T04:58:01.702Z,102853.31
2023-05-04T05:00:28.712Z,102854.38
2023-05-04T05:02:55.626Z,102861.59
2023-05-04T05:05:22.388Z,102850.75
2023-05-04T05:07:49.070Z,102841.50
2023-05-04T05:10:17.841Z,102834.84
2023-05-04T05:12:44.899Z,102833.63
2023-05-04T05:15:11.939Z,102830.81
2023-05-04T05:17:39.296Z,102839.13
2023-05-04T05:20:10.829Z,102834.41
2023-05-04T05:22:41.277Z,102832.56
2023-05-04T05:25:08.554Z,102826.72
2023-05-04T05:27:35.481Z,102825.72
2023-05-04T05:30:06.338Z,102835.47
2023-05-04T05:32:33.621Z,102829.19
2023-05-04T05:35:00.355Z,102828.91
2023-05-04T05:37:27.705Z,102830.00
2023-05-04T05:39:54.381Z,102830.06
2023-05-04T05:42:21.450Z,102830.16
2023-05-04T05:44:48.278Z,102842.53
2023-05-04T05:47:15.038Z,102830.59
2023-05-04T05:49:46.194Z,102831.25
2023-05-04T05:52:13.202Z,102839.09
2023-05-04T05:54:39.971Z,102837.97
2023-05-04T05:57:06.728Z,102833.31
2023-05-04T05:59:33.428Z,102831.94
2023-05-04T06:02:00.295Z,102830.47
2023-05-04T06:04:27.012Z,102819.22
2023-05-04T06:06:53.708Z,102828.53
2023-05-04T06:09:21.110Z,102820.88
2023-05-04T06:11:47.928Z,102818.78
2023-05-04T06:14:14.653Z,102809.25
2023-05-04T06:16:41.442Z,102800.81
2023-05-04T06:19:41.645Z,102796.56
2023-05-04T06:22:08.551Z,102787.75
2023-05-04T06:24:35.443Z,102787.47
2023-05-04T06:27:02.760Z,102785.00
2023-05-04T06:29:29.647Z,102796.34
2023-05-04T06:31:58.972Z,102817.69
2023-05-04T06:34:25.949Z,102825.47
2023-05-04T06:36:52.847Z,102815.38
2023-05-04T06:39:20.016Z,102805.22
2023-05-04T06:41:47.128Z,102790.53
2023-05-04T06:44:17.804Z,102782.38
2023-05-04T06:46:44.605Z,102763.47
2023-05-04T06:49:13.554Z,102738.88
2023-05-04T06:51:40.375Z,102763.56
2023-05-04T06:54:07.237Z,102783.19
2023-05-04T06:56:34.573Z,102788.59
2023-05-04T06:59:01.543Z,102743.94
2023-05-04T07:01:28.407Z,102733.50
2023-05-04T07:03:58.371Z,102727.16
2023-05-04T07:06:28.626Z,102716.75
2023-05-04T07:08:55.460Z,102769.84
2023-05-04T07:11:22.194Z,102763.66
2023-05-04T07:13:49.981Z,102756.28
2023-05-04T07:16:16.804Z,102766.44
2023-05-04T07:18:43.548Z,102756.63
2023-05-04T07:21:26.973Z,102762.22
2023-05-04T07:23:55.279Z,102748.91
2023-05-04T07:26:23.320Z,102728.22
2023-05-04T07:28:50.522Z,102713.84
2023-05-04T07:31:17.692Z,102730.94
2023-05-04T07:33:44.921Z,102748.72
2023-05-04T07:36:13.853Z,102748.31
2023-05-04T07:38:41.606Z,102731.09
2023-05-04T07:41:09.117Z,102734.63
2023-05-04T07:43:37.248Z,102717.72
2023-05-04T07:46:10.554Z,102704.22
2023-05-04T07:51:21.683Z,102690.53
2023-05-04T07:53:48.294Z,102701.50
2023-05-04T07:56:14.940Z,102693.28
2023-05-04T07:58:42.052Z,102687.72
2023-05-04T08:01:08.813Z,102670.78
2023-05-04T08:03:35.828Z,102672.84
2023-05-04T08:06:02.552Z,102674.59
2023-05-04T08:08:29.283Z,102664.91
2023-05-04T08:11:02.025Z,102645.97
2023-05-04T08:13:35.059Z,102638.41
2023-05-04T08:16:01.881Z,102634.72
2023-05-04T08:18:28.676Z,102657.75
2023-05-04T08:20:55.349Z,102636.53
2023-05-04T08:23:22.265Z,102637.13
2023-05-04T08:25:49.009Z,102636.13
2023-05-04T08:28:18.361Z,102633.78
2023-05-04T08:30:45.054Z,102645.13
2023-05-04T08:33:12.089Z,102633.84
2023-05-04T08:35:40.396Z,102619.69
2023-05-04T08:38:10.134Z,102616.00
2023-05-04T08:40:40.403Z,102610.88
2023-05-04T08:43:07.557Z,102613.69
2023-05-04T08:45:38.669Z,102597.13
2023-05-04T08:48:09.555Z,102582.56
2023-05-04T08:50:37.874Z,102560.31
2023-05-04T08:53:13.785Z,102583.84
2023-05-04T08:55:42.893Z,102577.81
2023-05-04T08:58:14.185Z,102566.44
2023-05-04T09:00:43.463Z,102553.56
2023-05-04T09:03:11.305Z,102572.47
2023-05-04T09:05:38.406Z,102556.38
2023-05-04T09:08:06.496Z,102575.50
2023-05-04T09:10:34.226Z,102569.38
2023-05-04T09:13:01.013Z,102552.63
2023-05-04T09:15:27.711Z,102564.88
2023-05-04T09:17:57.981Z,102568.25
2023-05-04T09:20:26.070Z,102574.47
2023-05-04T09:23:07.783Z,102554.69
2023-05-04T09:25:47.422Z,102595.78
2023-05-04T09:28:14.876Z,102578.25
2023-05-04T09:30:41.740Z,102578.94
2023-05-04T09:33:09.276Z,102591.75
2023-05-04T09:35:39.343Z,102564.13
2023-05-04T09:38:07.374Z,102544.56
2023-05-04T09:40:40.899Z,102523.78
2023-05-04T09:43:08.712Z,102539.53
2023-05-04T09:45:42.792Z,102547.91
2023-05-04T09:48:20.521Z,102546.84
2023-05-04T09:50:49.658Z,102575.44
2023-05-04T09:53:18.153Z,102555.25
2023-05-04T09:55:47.710Z,102588.72
2023-05-04T09:58:16.808Z,102572.81
2023-05-04T10:00:44.364Z,102582.97
2023-05-04T10:03:12.235Z,102530.63
2023-05-04T10:05:39.116Z,102578.97
2023-05-04T10:08:06.607Z,102597.34
2023-05-04T10:10:33.922Z,102566.81
2023-05-04T10:13:00.679Z,102585.19
2023-05-04T10:15:28.266Z,102596.88
2023-05-04T10:17:54.969Z,102595.59
2023-05-04T10:20:53.759Z,102591.09
2023-05-04T10:23:50.955Z,102579.47
2023-05-04T10:26:30.008Z,102592.75
2023-05-04T10:29:23.483Z,102585.69
2023-05-04T10:31:51.685Z,102586.09
2023-05-04T10:34:28.752Z,102589.59
2023-05-04T10:36:56.321Z,102570.03
2023-05-04T10:39:26.498Z,102564.88
2023-05-04T10:42:08.804Z,102563.59
2023-05-04T10:44:37.527Z,102558.53
2023-05-04T10:47:07.155Z,102577.78
2023-05-04T10:49:35.618Z,102537.75
2023-05-04T10:52:15.963Z,102542.75
2023-05-04T10:54:43.584Z,102552.34
2023-05-04T10:57:12.651Z,102526.84
2023-05-04T10:59:40.495Z,102524.50
2023-05-04T11:02:07.789Z,102545.69
2023-05-04T11:04:35.101Z,102539.66
2023-05-04T11:07:06.436Z,102549.78
2023-05-04T11:09:42.072Z,102543.59
2023-05-04T11:12:12.204Z,102547.88
2023-05-04T11:14:43.300Z,102555.72
2023-05-04T11:19:53.656Z,102559.56
2023-05-04T11:22:20.599Z,102549.22
2023-05-04T11:24:48.862Z,102526.88
2023-05-04T11:27:27.561Z,102524.88
2023-05-04T11:29:58.590Z,102516.88
2023-05-04T11:32:40.547Z,102490.41
2023-05-04T11:35:09.742Z,102464.53
2023-05-04T11:37:41.290Z,102493.53
2023-05-04T11:40:17.511Z,102484.84
2023-05-04T11:42:44.872Z,102480.59
2023-05-04T11:45:11.503Z,102488.38
2023-05-04T11:47:38.783Z,102513.28
2023-05-04T11:50:07.396Z,102501.84
2023-05-04T11:52:36.424Z,102491.06
2023-05-04T11:55:03.540Z,102479.38
2023-05-04T11:57:33.163Z,102449.75
2023-05-04T11:59:59.866Z,102460.16
2023-05-04T12:02:30.609Z,102477.16
2023-05-04T12:04:57.375Z,102481.25
2023-05-04T12:07:24.172Z,102484.06
2023-05-04T12:09:51.114Z,102496.75
2023-05-04T12:12:20.423Z,102469.69
2023-05-04T12:14:58.069Z,102441.19
2023-05-04T12:17:24.830Z,102471.41
2023-05-04T12:19:52.285Z,102486.25
2023-05-04T12:22:27.883Z,102464.28
2023-05-04T12:24:57.990Z,102455.19
2023-05-04T12:27:25.438Z,102460.91
2023-05-04T12:29:52.447Z,102462.25
2023-05-04T12:32:19.869Z,102483.25
2023-05-04T12:34:46.803Z,102482.34
2023-05-04T12:37:13.434Z,102491.81
2023-05-04T12:39:40.150Z,102445.28
2023-05-04T12:42:06.801Z,102452.16
2023-05-04T12:44:34.517Z,102467.88
2023-05-04T12:47:01.548Z,102460.19
2023-05-04T12:49:28.307Z,102484.81
2023-05-04T12:51:54.999Z,102480.34
2023-05-04T12:54:21.951Z,102478.34
2023-05-04T12:56:50.889Z,102479.09
2023-05-04T12:59:17.571Z,102501.97
2023-05-04T13:01:44.438Z,102494.47
2023-05-04T13:04:11.185Z,102483.72
2023-05-04T13:06:37.939Z,102491.59
2023-05-04T13:09:06.050Z,102474.72
2023-05-04T13:11:32.957Z,102471.31
2023-05-04T13:13:59.656Z,102463.13
2023-05-04T13:16:28.087Z,102467.41
2023-05-04T13:18:55.526Z,102449.06
2023-05-04T13:21:22.304Z,102468.19
2023-05-04T13:23:48.992Z,102441.91
2023-05-04T13:26:15.766Z,102469.84
2023-05-04T13:28:42.598Z,102492.03
2023-05-04T13:31:09.835Z,102500.47
2023-05-04T13:33:39.416Z,102477.84
2023-05-04T13:36:07.039Z,102481.06
2023-05-04T13:38:33.806Z,102482.03
2023-05-04T13:41:00.555Z,102500.22
2023-05-04T13:43:28.325Z,102521.03
2023-05-04T13:45:57.087Z,102476.44
2023-05-04T13:48:25.733Z,102461.34
2023-05-04T13:50:52.771Z,102449.63
2023-05-04T13:53:19.527Z,102441.13
2023-05-04T13:55:46.900Z,102442.94
2023-05-04T13:58:13.573Z,102444.34
2023-05-04T14:00:40.352Z,102443.75
2023-05-04T14:03:07.241Z,102432.72
2023-05-04T14:05:35.478Z,102426.66
2023-05-04T14:08:02.293Z,102425.00
2023-05-04T14:10:30.247Z,102397.81
2023-05-04T14:12:56.964Z,102387.59
2023-05-04T14:15:23.941Z,102381.91
2023-05-04T14:17:50.750Z,102381.16
2023-05-04T14:20:18.084Z,102354.19
2023-05-04T14:22:45.078Z,102356.84
2023-05-04T14:25:12.786Z,102376.06
2023-05-04T14:27:39.532Z,102383.47
2023-05-04T14:30:09.382Z,102388.59
2023-05-04T14:32:36.531Z,102406.50
2023-05-04T14:35:08.193Z,102406.50
2023-05-04T14:37:37.484Z,102404.84
2023-05-04T14:40:06.494Z,102396.03
2023-05-04T14:42:33.728Z,102393.00
2023-05-04T14:45:00.522Z,102407.34
2023-05-04T14:47:28.702Z,102399.56
2023-05-04T14:49:55.587Z,102412.41
2023-05-04T14:52:22.276Z,102398.56
2023-05-04T14:54:49.000Z,102380.34
2023-05-04T14:57:19.043Z,102383.25
2023-05-04T14:59:45.763Z,102386.66
2023-05-04T15:02:12.645Z,102385.75
2023-05-04T15:04:39.450Z,102348.72
2023-05-04T15:07:06.145Z,102306.75
2023-05-04T15:09:32.833Z,102311.09
2023-05-04T15:11:59.581Z,102283.84
2023-05-04T15:14:26.583Z,102300.56
2023-05-04T15:16:53.362Z,102298.41
2023-05-04T15:19:21.173Z,102289.47
2023-05-04T15:21:49.328Z,102254.31
2023-05-04T15:24:16.032Z,102268.75
2023-05-04T15:26:42.721Z,102260.91
2023-05-04T15:29:09.407Z,102260.41
2023-05-04T15:31:36.187Z,102235.13
2023-05-04T15:34:02.931Z,102255.22
2023-05-04T15:36:31.709Z,102253.53
2023-05-04T15:38:58.494Z,102257.81
2023-05-04T15:41:25.161Z,102256.34
2023-05-04T15:43:51.928Z,102267.56
2023-05-04T15:46:18.647Z,102274.59
2023-05-04T15:48:45.467Z,102290.00
2023-05-04T15:51:12.375Z,102290.06
2023-05-04T15:53:39.949Z,102290.00
2023-05-04T15:56:06.674Z,102295.28
2023-05-04T15:58:33.567Z,102309.44
2023-05-04T16:01:03.788Z,102303.91
2023-05-04T16:03:31.661Z,102306.78
2023-05-04T16:06:01.173Z,102306.63
2023-05-04T16:08:28.046Z,102291.41
2023-05-04T16:10:56.222Z,102301.88
2023-05-04T16:13:23.112Z,102257.06
2023-05-04T16:15:53.296Z,102244.72
2023-05-04T16:18:21.400Z,102261.19
2023-05-04T16:20:48.570Z,102265.59
2023-05-04T16:23:17.353Z,102254.19
2023-05-04T16:25:44.505Z,102258.28
2023-05-04T16:28:11.839Z,102250.41
2023-05-04T16:30:38.947Z,102257.72
2023-05-04T16:33:05.774Z,102263.28
2023-05-04T16:35:34.870Z,102273.19
2023-05-04T16:38:01.536Z,102272.66
2023-05-04T16:40:28.296Z,102288.22
2023-05-04T16:42:55.005Z,102303.63
2023-05-04T16:45:24.696Z,102318.59
2023-05-04T16:47:52.239Z,102326.16
2023-05-04T16:50:18.887Z,102339.81
2023-05-04T16:52:45.660Z,102350.69
2023-05-04T16:55:12.707Z,102363.28
2023-05-04T16:57:39.801Z,102364.69
2023-05-04T17:00:07.759Z,102373.63
2023-05-04T17:02:35.416Z,102384.00
2023-05-04T17:05:04.641Z,102384.97
2023-05-04T17:07:31.329Z,102380.34
2023-05-04T17:09:58.067Z,102381.47
2023-05-04T17:12:27.486Z,102384.53
2023-05-04T17:14:54.433Z,102371.66
2023-05-04T17:17:21.488Z,102372.00
2023-05-04T17:19:48.156Z,102363.78
2023-05-04T17:22:15.061Z,102352.00
2023-05-04T17:24:44.105Z,102358.78
2023-05-04T17:27:12.610Z,102355.25
2023-05-04T17:29:41.014Z,102337.72
2023-05-04T17:32:10.645Z,102342.59
2023-05-04T17:34:37.737Z,102342.09
2023-05-04T17:37:04.501Z,102336.06
2023-05-04T17:39:31.750Z,102353.34
2023-05-04T17:41:58.855Z,102343.41
2023-05-04T17:44:26.117Z,102334.59
2023-05-04T17:46:52.827Z,102334.16
2023-05-04T17:49:19.643Z,102333.75
2023-05-04T17:51:49.069Z,102315.88
2023-05-04T17:54:16.513Z,102311.50
2023-05-04T17:56:43.230Z,102320.34
2023-05-04T17:59:09.967Z,102315.97
2023-05-04T18:01:36.656Z,102298.22
2023-05-04T18:04:04.173Z,102304.44
2023-05-04T18:06:33.824Z,102311.28
2023-05-04T18:09:00.884Z,102322.47
2023-05-04T18:11:27.765Z,102345.69
2023-05-04T18:13:56.433Z,102343.81
2023-05-04T18:16:24.320Z,102359.94
2023-05-04T18:18:51.361Z,102369.69
2023-05-04T18:21:18.525Z,102372.81
2023-05-04T18:23:45.667Z,102392.59
2023-05-04T18:26:19.928Z,102400.25
2023-05-04T18:28:46.605Z,102405.38
2023-05-04T18:31:13.426Z,102410.78
2023-05-04T18:33:42.500Z,102414.06
2023-05-04T18:36:09.340Z,102413.69
2023-05-04T18:38:37.185Z,102421.50
2023-05-04T18:41:04.785Z,102424.22
2023-05-04T18:43:31.635Z,102429.16
2023-05-04T18:45:58.563Z,102429.97
2023-05-04T18:48:25.372Z,102402.31
2023-05-04T18:50:57.132Z,102392.84
2023-05-04T18:53:24.368Z,102373.78
2023-05-04T18:56:08.634Z,102380.97
2023-05-04T18:58:38.992Z,102381.25
2023-05-04T19:01:06.136Z,102369.16
2023-05-04T19:03:32.981Z,102378.25
2023-05-04T19:05:59.792Z,102382.63
2023-05-04T19:08:27.879Z,102393.22
2023-05-04T19:10:59.148Z,102383.31
2023-05-04T19:13:26.013Z,102405.28
2023-05-04T19:15:52.812Z,102399.91
2023-05-04T19:18:19.537Z,102396.84
2023-05-04T19:20:46.427Z,102396.16
2023-05-04T19:23:13.115Z,102405.13
2023-05-04T19:25:39.997Z,102400.19
2023-05-04T19:28:09.841Z,102402.72
2023-05-04T19:30:37.075Z,102403.56
2023-05-04T19:33:04.687Z,102402.03
2023-05-04T19:35:31.422Z,102405.88
2023-05-04T19:37:58.185Z,102403.19
2023-05-04T19:40:26.275Z,102421.03
2023-05-04T19:42:53.008Z,102421.41
2023-05-04T19:45:19.759Z,102433.81
2023-05-04T19:47:47.318Z,102442.47
2023-05-04T19:50:15.814Z,102439.09
2023-05-04T19:52:45.933Z,102439.53
2023-05-04T19:55:12.902Z,102441.81
2023-05-04T19:57:39.756Z,102441.28
2023-05-04T20:00:09.714Z,102449.34
2023-05-04T20:02:38.110Z,102444.47
2023-05-04T20:05:08.190Z,102455.00
2023-05-04T20:07:34.914Z,102448.16
2023-05-04T20:10:01.705Z,102448.91
2023-05-04T20:12:28.702Z,102452.91
2023-05-04T20:14:55.548Z,102448.75
2023-05-04T20:17:22.714Z,102443.72
2023-05-04T20:19:49.980Z,102445.81
2023-05-04T20:22:16.863Z,102432.47
2023-05-04T20:24:43.570Z,102436.72
2023-05-04T20:27:10.429Z,102442.09
2023-05-04T20:29:37.128Z,102432.25
2023-05-04T20:32:05.098Z,102435.03
2023-05-04T20:34:32.192Z,102425.31
2023-05-04T20:36:58.962Z,102429.63
2023-05-04T20:39:25.732Z,102422.28
2023-05-04T20:41:52.990Z,102426.91
2023-05-04T20:44:19.733Z,102423.22
2023-05-04T20:46:46.437Z,102422.28
2023-05-04T20:49:13.521Z,102421.84
2023-05-04T20:51:40.231Z,102419.69
2023-05-04T20:54:06.951Z,102417.00
2023-05-04T20:56:33.687Z,102420.00
2023-05-04T20:59:00.511Z,102426.81
2023-05-04T21:01:27.297Z,102414.13
2023-05-04T21:03:54.005Z,102415.69
2023-05-04T21:06:21.056Z,102416.38
2023-05-04T21:08:47.771Z,102411.75
2023-05-04T21:11:14.440Z,102421.75
2023-05-04T21:13:41.111Z,102422.47
2023-05-04T21:16:08.734Z,102412.84
2023-05-04T21:18:35.732Z,102411.41
2023-05-04T21:21:05.864Z,102417.72
2023-05-04T21:23:32.655Z,102414.88
2023-05-04T21:26:05.675Z,102414.69
2023-05-04T21:28:32.376Z,102413.34
2023-05-04T21:30:59.167Z,102413.06
2023-05-04T21:33:28.714Z,102409.41
2023-05-04T21:35:55.391Z,102404.25
2023-05-04T21:38:22.509Z,102417.88
2023-05-04T21:40:49.439Z,102405.13
2023-05-04T21:43:16.326Z,102393.97
2023-05-04T21:45:43.100Z,102395.44
2023-05-04T21:48:09.930Z,102390.00
2023-05-04T21:50:36.653Z,102393.97
2023-05-04T21:53:03.367Z,102382.97
2023-05-04T21:55:30.458Z,102376.72
2023-05-04T21:57:57.391Z,102372.00
2023-05-04T22:00:24.360Z,102369.44
2023-05-04T22:02:54.639Z,102369.47
2023-05-04T22:05:22.459Z,102368.34
2023-05-04T22:07:49.894Z,102353.09
2023-05-04T22:10:18.548Z,102349.50
2023-05-04T22:12:45.469Z,102360.50
2023-05-04T22:15:12.299Z,102345.28
2023-05-04T22:17:39.182Z,102326.75
2023-05-04T22:20:07.292Z,102331.44
2023-05-04T22:22:34.657Z,102319.91
2023-05-04T22:25:01.732Z,102298.66
2023-05-04T22:27:28.504Z,102303.28
2023-05-04T22:29:55.323Z,102304.44
2023-05-04T22:32:22.009Z,102301.94
2023-05-04T22:34:48.762Z,102312.19
2023-05-04T22:37:15.463Z,102306.44
2023-05-04T22:39:42.159Z,102306.13
2023-05-04T22:42:08.792Z,102307.50
2023-05-04T22:44:35.570Z,102306.47
2023-05-04T22:47:02.276Z,102302.81
2023-05-04T22:49:28.918Z,102303.63
2023-05-04T22:51:55.578Z,102301.00
2023-05-04T22:54:22.442Z,102310.72
2023-05-04T22:56:49.127Z,102308.38
2023-05-04T22:59:15.850Z,102311.25
2023-05-04T23:01:43.428Z,102316.00
2023-05-04T23:04:11.501Z,102330.25
2023-05-04T23:06:38.674Z,102329.50
2023-05-04T23:09:05.490Z,102346.31
2023-05-04T23:11:32.476Z,102350.00
2023-05-04T23:13:59.379Z,102354.78
2023-05-04T23:16:26.166Z,102356.56
2023-05-04T23:18:52.865Z,102363.75
2023-05-04T23:21:22.327Z,102378.94
2023-05-04T23:23:51.605Z,102382.09
2023-05-04T23:26:18.497Z,102394.59
2023-05-04T23:28:45.287Z,102404.16
2023-05-04T23:31:12.035Z,102407.81
2023-05-04T23:33:38.726Z,102418.28
2023-05-04T23:36:05.622Z,102416.97
2023-05-04T23:38:32.310Z,102425.34
2023-05-04T23:41:01.272Z,102425.63
2023-05-04T23:43:27.904Z,102419.84
2023-05-04T23:46:05.009Z,102424.59
2023-05-04T23:48:32.776Z,102424.03
2023-05-04T23:51:06.480Z,102410.16
2023-05-04T23:53:33.889Z,102419.38
2023-05-04T23:56:05.046Z,102426.19
2023-05-04T23:58:33.423Z,102425.19
